aviador You're here:

KLAF Decoded Metar

LAFAYETTE in IN, USA
Report Time2017-05-30 10:54:00
UTC Time2017-05-30 11:13:36
Flight Rules vfr VFR
Wind270° at 03 kt
W.Decomp.*RWY 28: 3.0 kt HW 0.5 kt LCW
RWY 23: 2.3 kt HW 2.0 kt RCW
W.Rank270° ranks 2
Current wind is below 270° avg. (7.9)
Visibility9999 m
Phenomena:N/A
Clouds:N/A
CeilingNone
Temp11°C (ISA -3)
Dew Point11°C (100% RH)
AAT10.2°C
QNH1015 hPa
Density Alt374 ft
Elevation597 ft
Report Wrong Elevation
Raw Report
KLAF 301054Z 27003KT 10SM CLR 11/11 A2998 RMK AO2 SLP148
T01060106=

Extra information for KLAF:More info

Metar Taf Metar & Taf Last 4 Metars F.Rules Stats Wind Profile Meteogram Temp Stats Airport Information Weather charts Add Link Nearby VenuesMetar ALERT Operation Metar Decoded Social comments

AIRNAV info for KLAF